Time,TemperatureF,DewpointF,PressureIn,WindDirection,WindDirectionDegrees,WindSpeedMPH,WindSpeedGustMPH,Humidity,HourlyPrecipIn,Conditions,Clouds,dailyrainin,SoftwareType,DateUTC
2013-11-21 00:00:00,42.5,34.5,30.24,East,98,0.0,4.0,73,0.00,,---,0.00,VWS V14.01,2013-11-21 05:00:00,
2013-11-21 00:01:00,42.5,34.5,30.24,SE,139,3.0,4.0,73,0.00,,---,0.00,VWS V14.01,2013-11-21 05:01:00,
2013-11-21 00:02:00,42.6,34.6,30.24,SSW,193,1.0,5.0,73,0.00,,---,0.00,VWS V14.01,2013-11-21 05:02:00,
2013-11-21 00:07:00,42.9,34.5,30.23,East,91,0.0,5.0,72,0.00,,---,0.00,VWS V14.01,2013-11-21 05:07:00,
2013-11-21 00:12:00,43.2,34.5,30.23,SE,131,0.0,5.0,71,0.00,,---,0.00,VWS V14.01,2013-11-21 05:12:00,
2013-11-21 00:17:00,43.3,34.5,30.23,ESE,108,0.0,5.0,71,0.00,,---,0.00,VWS V14.01,2013-11-21 05:17:00,
2013-11-21 00:22:00,43.3,34.5,30.23,SE,136,2.0,7.0,71,0.00,,---,0.00,VWS V14.01,2013-11-21 05:22:00,
2013-11-21 00:27:00,43.3,34.5,30.23,SE,145,2.0,7.0,71,0.00,,---,0.00,VWS V14.01,2013-11-21 05:27:00,
2013-11-21 00:30:00,42.7,35.3,30.23,SE,131,0.0,2.0,75,0.00,,---,0.00,VWS V14.01,2013-11-21 05:30:00,
2013-11-21 00:32:00,43.3,34.5,30.23,SE,127,1.0,4.0,71,0.00,,---,0.00,VWS V14.01,2013-11-21 05:32:00,
2013-11-21 00:37:00,43.3,34.9,30.24,ESE,118,1.0,4.0,72,0.00,,---,0.00,VWS V14.01,2013-11-21 05:37:00,
2013-11-21 00:42:00,43.2,34.8,30.24,ESE,105,1.0,4.0,72,0.00,,---,0.00,VWS V14.01,2013-11-21 05:42:00,
2013-11-21 00:47:00,43.2,34.8,30.23,SE,139,4.0,4.0,72,0.00,,---,0.00,VWS V14.01,2013-11-21 05:47:00,
2013-11-21 00:52:00,43.2,34.8,30.23,SE,129,0.0,4.0,72,0.00,,---,0.00,VWS V14.01,2013-11-21 05:52:00,
2013-11-21 00:57:00,43.1,35.0,30.23,ESE,103,0.0,4.0,73,0.00,,---,0.00,VWS V14.01,2013-11-21 05:57:00,
2013-11-21 01:00:00,43.0,35.3,30.23,ESE,103,0.0,4.0,74,0.00,,---,0.00,VWS V14.01,2013-11-21 06:00:00,
2013-11-21 01:02:00,42.9,35.2,30.23,ESE,103,0.0,0.0,74,0.00,,---,0.00,VWS V14.01,2013-11-21 06:02:00,
2013-11-21 01:07:00,42.9,35.2,30.23,SE,128,0.0,1.0,74,0.00,,---,0.00,VWS V14.01,2013-11-21 06:07:00,
2013-11-21 01:12:00,42.8,35.4,30.23,SE,128,0.0,1.0,75,0.00,,---,0.00,VWS V14.01,2013-11-21 06:12:00,
2013-11-21 01:17:00,42.7,35.3,30.23,SSE,155,1.0,2.0,75,0.00,,---,0.00,VWS V14.01,2013-11-21 06:17:00,
2013-11-21 01:22:00,42.7,35.0,30.23,SE,133,0.0,2.0,74,0.00,,---,0.00,VWS V14.01,2013-11-21 06:22:00,
2013-11-21 01:27:00,42.8,35.1,30.23,SE,131,0.0,2.0,74,0.00,,---,0.00,VWS V14.01,2013-11-21 06:27:00,
2013-11-21 01:30:00,42.7,35.3,30.23,SE,131,0.0,2.0,75,0.00,,---,0.00,VWS V14.01,2013-11-21 06:30:00,
2013-11-21 01:32:00,42.7,35.3,30.23,SE,131,0.0,0.0,75,0.00,,---,0.00,VWS V14.01,2013-11-21 06:32:00,
2013-11-21 01:37:00,42.7,35.3,30.23,ESE,117,0.0,3.0,75,0.00,,---,0.00,VWS V14.01,2013-11-21 06:37:00,
2013-11-21 01:42:00,42.6,35.6,30.23,ESE,120,0.0,3.0,76,0.00,,---,0.00,VWS V14.01,2013-11-21 06:42:00,
2013-11-21 01:47:00,42.5,35.2,30.23,SE,127,0.0,3.0,75,0.00,,---,0.00,VWS V14.01,2013-11-21 06:47:00,
2013-11-21 01:52:00,42.4,35.4,30.23,SE,131,1.0,3.0,76,0.00,,---,0.00,VWS V14.01,2013-11-21 06:52:00,
2013-11-21 01:57:00,42.4,35.4,30.23,ESE,122,0.0,3.0,76,0.00,,---,0.00,VWS V14.01,2013-11-21 06:57:00,
2013-11-21 02:00:00,42.3,35.3,30.23,ESE,123,0.0,3.0,76,0.00,,---,0.00,VWS V14.01,2013-11-21 07:00:00,
2013-11-21 02:02:00,42.3,35.6,30.23,ESE,122,0.0,0.0,77,0.00,,---,0.00,VWS V14.01,2013-11-21 07:02:00,
2013-11-21 02:07:00,42.2,35.5,30.23,ENE,67,0.0,2.0,77,0.00,,---,0.00,VWS V14.01,2013-11-21 07:07:00,
2013-11-21 02:12:00,42.2,35.5,30.23,ENE,67,0.0,2.0,77,0.00,,---,0.00,VWS V14.01,2013-11-21 07:12:00,
2013-11-21 02:17:00,42.1,35.4,30.24,East,84,0.0,2.0,77,0.00,,---,0.00,VWS V14.01,2013-11-21 07:17:00,
2013-11-21 02:22:00,42.0,35.3,30.24,North,11,0.0,2.0,77,0.00,,---,0.00,VWS V14.01,2013-11-21 07:22:00,
2013-11-21 02:27:00,42.0,35.7,30.24,North,11,0.0,2.0,78,0.00,,---,0.00,VWS V14.01,2013-11-21 07:27:00,
2013-11-21 02:30:00,41.7,36.6,30.24,ESE,102,0.0,2.0,82,0.00,,---,0.00,VWS V14.01,2013-11-21 07:30:00,
2013-11-21 02:32:00,41.9,35.5,30.24,North,11,0.0,0.0,78,0.00,,---,0.00,VWS V14.01,2013-11-21 07:32:00,
2013-11-21 02:37:00,41.8,35.8,30.24,SE,126,0.0,1.0,79,0.00,,---,0.00,VWS V14.01,2013-11-21 07:37:00,
2013-11-21 02:42:00,41.8,35.8,30.24,SE,125,0.0,1.0,79,0.00,,---,0.00,VWS V14.01,2013-11-21 07:42:00,
2013-11-21 02:47:00,41.7,36.0,30.24,SE,125,0.0,1.0,80,0.00,,---,0.00,VWS V14.01,2013-11-21 07:47:00,
2013-11-21 02:52:00,41.6,35.9,30.24,SE,126,0.0,1.0,80,0.00,,---,0.00,VWS V14.01,2013-11-21 07:52:00,
2013-11-21 02:57:00,41.5,35.8,30.24,SE,131,0.0,1.0,80,0.00,,---,0.00,VWS V14.01,2013-11-21 07:57:00,
2013-11-21 03:00:00,42.3,36.6,30.23,SE,138,0.0,1.0,80,0.00,,---,0.00,VWS V14.01,2013-11-21 08:00:00,
2013-11-21 03:02:00,41.6,36.2,30.24,SE,131,0.0,0.0,81,0.00,,---,0.00,VWS V14.01,2013-11-21 08:02:00,
2013-11-21 03:07:00,41.5,36.4,30.24,SE,131,0.0,0.0,82,0.00,,---,0.00,VWS V14.01,2013-11-21 08:07:00,
2013-11-21 03:12:00,41.4,36.3,30.24,ESE,117,0.0,2.0,82,0.00,,---,0.00,VWS V14.01,2013-11-21 08:12:00,
2013-11-21 03:17:00,41.5,36.7,30.24,ESE,117,0.0,2.0,83,0.00,,---,0.00,VWS V14.01,2013-11-21 08:17:00,
2013-11-21 03:22:00,41.6,36.5,30.24,ESE,102,0.0,2.0,82,0.00,,---,0.00,VWS V14.01,2013-11-21 08:22:00,
2013-11-21 03:27:00,41.7,36.6,30.24,ESE,102,0.0,2.0,82,0.00,,---,0.00,VWS V14.01,2013-11-21 08:27:00,
2013-11-21 03:30:00,41.7,36.6,30.24,ESE,102,0.0,2.0,82,0.00,,---,0.00,VWS V14.01,2013-11-21 08:30:00,
2013-11-21 03:32:00,41.7,36.9,30.23,ESE,102,0.0,0.0,83,0.00,,---,0.00,VWS V14.01,2013-11-21 08:32:00,
2013-11-21 03:37:00,41.6,36.5,30.23,ESE,102,0.0,1.0,82,0.00,,---,0.00,VWS V14.01,2013-11-21 08:37:00,
2013-11-21 03:42:00,41.6,36.8,30.23,ENE,63,1.0,1.0,83,0.00,,---,0.00,VWS V14.01,2013-11-21 08:42:00,
2013-11-21 03:47:00,41.8,36.4,30.23,SE,129,0.0,1.0,81,0.00,,---,0.00,VWS V14.01,2013-11-21 08:47:00,
2013-11-21 03:52:00,42.0,36.3,30.23,SE,124,0.0,1.0,80,0.00,,---,0.00,VWS V14.01,2013-11-21 08:52:00,
2013-11-21 03:57:00,42.2,36.5,30.23,SE,127,0.0,1.0,80,0.00,,---,0.00,VWS V14.01,2013-11-21 08:57:00,
2013-11-21 04:00:00,43.0,36.0,30.23,ESE,121,1.0,5.0,76,0.00,,---,0.00,VWS V14.01,2013-11-21 09:00:00,
2013-11-21 04:02:00,42.3,36.6,30.23,ESE,122,1.0,1.0,80,0.00,,---,0.00,VWS V14.01,2013-11-21 09:02:00,
2013-11-21 04:07:00,42.4,36.4,30.23,ESE,121,1.0,2.0,79,0.00,,---,0.00,VWS V14.01,2013-11-21 09:07:00,
2013-11-21 04:12:00,42.5,36.1,30.23,SE,134,0.0,2.0,78,0.00,,---,0.00,VWS V14.01,2013-11-21 09:12:00,
2013-11-21 04:17:00,42.5,36.5,30.23,ESE,120,2.0,2.0,79,0.00,,---,0.00,VWS V14.01,2013-11-21 09:17:00,
2013-11-21 04:22:00,42.5,36.1,30.23,SE,127,0.0,2.0,78,0.00,,---,0.00,VWS V14.01,2013-11-21 09:22:00,
2013-11-21 04:27:00,42.5,36.1,30.23,ESE,103,0.0,2.0,78,0.00,,---,0.00,VWS V14.01,2013-11-21 09:27:00,
2013-11-21 04:30:00,42.5,36.1,30.23,SE,133,0.0,2.0,78,0.00,,---,0.00,VWS V14.01,2013-11-21 09:30:00,
2013-11-21 04:32:00,42.6,36.2,30.23,ESE,120,0.0,4.0,78,0.00,,---,0.00,VWS V14.01,2013-11-21 09:32:00,
2013-11-21 04:37:00,42.7,36.3,30.23,ENE,78,1.0,4.0,78,0.00,,---,0.00,VWS V14.01,2013-11-21 09:37:00,
2013-11-21 04:42:00,42.7,36.0,30.23,ESE,106,4.0,4.0,77,0.00,,---,0.00,VWS V14.01,2013-11-21 09:42:00,
2013-11-21 04:47:00,42.8,36.1,30.23,ESE,111,0.0,5.0,77,0.00,,---,0.00,VWS V14.01,2013-11-21 09:47:00,
2013-11-21 04:52:00,42.9,36.2,30.23,SE,129,4.0,5.0,77,0.00,,---,0.00,VWS V14.01,2013-11-21 09:52:00,
2013-11-21 04:57:00,43.0,36.0,30.23,ESE,110,0.0,5.0,76,0.00,,---,0.00,VWS V14.01,2013-11-21 09:57:00,
2013-11-21 05:00:00,43.8,36.7,30.22,SE,127,1.0,4.0,76,0.00,,---,0.00,VWS V14.01,2013-11-21 10:00:00,
2013-11-21 05:02:00,43.0,36.0,30.23,ESE,121,0.0,2.0,76,0.00,,---,0.00,VWS V14.01,2013-11-21 10:02:00,
2013-11-21 05:07:00,43.1,36.1,30.23,SE,127,1.0,4.0,76,0.00,,---,0.00,VWS V14.01,2013-11-21 10:07:00,
2013-11-21 05:12:00,43.1,36.1,30.23,SW,235,1.0,4.0,76,0.00,,---,0.00,VWS V14.01,2013-11-21 10:12:00,
2013-11-21 05:17:00,43.2,35.8,30.23,SSE,166,2.0,5.0,75,0.00,,---,0.00,VWS V14.01,2013-11-21 10:17:00,
2013-11-21 05:22:00,43.4,36.0,30.22,ESE,121,1.0,5.0,75,0.00,,---,0.00,VWS V14.01,2013-11-21 10:22:00,
2013-11-21 05:27:00,43.6,35.9,30.22,ESE,120,1.0,5.0,74,0.00,,---,0.00,VWS V14.01,2013-11-21 10:27:00,
2013-11-21 05:30:00,43.7,36.0,30.22,ESE,105,1.0,5.0,74,0.00,,---,0.00,VWS V14.01,2013-11-21 10:30:00,
2013-11-21 05:32:00,43.7,36.0,30.22,ESE,123,3.0,7.0,74,0.00,,---,0.00,VWS V14.01,2013-11-21 10:32:00,
2013-11-21 05:37:00,44.0,35.9,30.22,SE,142,1.0,7.0,73,0.00,,---,0.00,VWS V14.01,2013-11-21 10:37:00,
2013-11-21 05:42:00,44.1,36.0,30.22,SW,219,2.0,7.0,73,0.00,,---,0.00,VWS V14.01,2013-11-21 10:42:00,
2013-11-21 05:51:00,44.0,36.6,30.22,SE,142,4.0,4.0,75,0.00,,---,0.00,VWS V14.01,2013-11-21 10:51:00,
2013-11-21 05:56:00,43.9,36.8,30.22,SSE,150,3.0,5.0,76,0.00,,---,0.00,VWS V14.01,2013-11-21 10:56:00,
2013-11-21 06:00:00,42.9,37.8,30.23,SW,225,2.0,9.0,82,0.00,,---,0.00,VWS V14.01,2013-11-21 11:00:00,
2013-11-21 06:01:00,43.8,36.7,30.22,ESE,117,1.0,1.0,76,0.00,,---,0.00,VWS V14.01,2013-11-21 11:01:00,
2013-11-21 06:06:00,43.7,37.0,30.22,SE,128,3.0,6.0,77,0.00,,---,0.00,VWS V14.01,2013-11-21 11:06:00,
2013-11-21 06:12:00,43.7,37.0,30.22,SE,138,1.0,2.0,77,0.00,,---,0.00,VWS V14.01,2013-11-21 11:12:00,
2013-11-21 06:17:00,43.7,37.0,30.22,SE,141,5.0,6.0,77,0.00,,---,0.00,VWS V14.01,2013-11-21 11:17:00,
2013-11-21 06:22:00,43.6,37.2,30.22,East,86,3.0,7.0,78,0.00,,---,0.00,VWS V14.01,2013-11-21 11:22:00,
2013-11-21 06:27:00,43.5,37.4,30.22,SE,146,4.0,7.0,79,0.00,,---,0.00,VWS V14.01,2013-11-21 11:27:00,
2013-11-21 06:30:00,42.6,38.7,30.24,ESE,122,1.0,8.0,86,0.02,,---,0.02,VWS V14.01,2013-11-21 11:30:00,
2013-11-21 06:32:00,43.4,37.7,30.22,SE,136,2.0,6.0,80,0.00,,---,0.00,VWS V14.01,2013-11-21 11:32:00,
2013-11-21 06:37:00,43.3,37.6,30.22,SSW,207,2.0,7.0,80,0.00,,---,0.00,VWS V14.01,2013-11-21 11:37:00,
2013-11-21 06:42:00,43.1,37.7,30.23,SE,146,5.0,7.0,81,0.00,,---,0.00,VWS V14.01,2013-11-21 11:42:00,
2013-11-21 06:47:00,42.9,37.8,30.23,SSE,150,4.0,7.0,82,0.00,,---,0.00,VWS V14.01,2013-11-21 11:47:00,
2013-11-21 06:52:00,42.8,38.0,30.23,SSE,150,2.0,7.0,83,0.00,,---,0.00,VWS V14.01,2013-11-21 11:52:00,
2013-11-21 06:57:00,42.9,37.8,30.23,SSE,168,6.0,9.0,82,0.00,,---,0.00,VWS V14.01,2013-11-21 11:57:00,
2013-11-21 07:00:00,42.3,39.3,30.25,SSE,158,4.0,9.0,89,0.05,,---,0.05,VWS V14.01,2013-11-21 12:00:00,
2013-11-21 07:02:00,43.0,38.2,30.24,SSW,198,6.0,8.0,83,0.01,,---,0.01,VWS V14.01,2013-11-21 12:02:00,
2013-11-21 07:07:00,42.9,38.1,30.24,SW,225,3.0,8.0,83,0.01,,---,0.01,VWS V14.01,2013-11-21 12:07:00,
2013-11-21 07:12:00,42.9,38.4,30.24,SSE,158,2.0,8.0,84,0.01,,---,0.01,VWS V14.01,2013-11-21 12:12:00,
2013-11-21 07:17:00,42.7,38.2,30.24,SSE,149,2.0,8.0,84,0.01,,---,0.01,VWS V14.01,2013-11-21 12:17:00,
2013-11-21 07:23:00,42.7,38.5,30.24,SE,127,1.0,8.0,85,0.02,,---,0.02,VWS V14.01,2013-11-21 12:23:00,
2013-11-21 07:28:00,42.7,38.5,30.24,SE,129,2.0,8.0,85,0.02,,---,0.02,VWS V14.01,2013-11-21 12:28:00,
2013-11-21 07:30:00,42.4,40.0,30.26,SE,124,5.0,12.0,91,0.06,,---,0.06,VWS V14.01,2013-11-21 12:30:00,
2013-11-21 07:33:00,42.6,38.7,30.24,SE,129,2.0,4.0,86,0.02,,---,0.02,VWS V14.01,2013-11-21 12:33:00,
2013-11-21 07:38:00,42.6,38.7,30.24,SW,228,0.0,6.0,86,0.02,,---,0.02,VWS V14.01,2013-11-21 12:38:00,
2013-11-21 07:43:00,42.6,39.0,30.24,SSE,164,3.0,9.0,87,0.03,,---,0.03,VWS V14.01,2013-11-21 12:43:00,
2013-11-21 07:48:00,42.5,39.2,30.24,ESE,122,1.0,9.0,88,0.04,,---,0.04,VWS V14.01,2013-11-21 12:48:00,
2013-11-21 07:53:00,42.4,39.1,30.24,SE,143,1.0,9.0,88,0.04,,---,0.04,VWS V14.01,2013-11-21 12:53:00,
2013-11-21 07:58:00,42.3,39.3,30.25,SSW,205,1.0,9.0,89,0.05,,---,0.05,VWS V14.01,2013-11-21 12:58:00,
2013-11-21 08:00:00,42.7,40.3,30.25,SE,145,4.0,12.0,91,0.04,,---,0.06,VWS V14.01,2013-11-21 13:00:00,
2013-11-21 08:03:00,42.3,39.3,30.25,SSE,153,4.0,9.0,89,0.05,,---,0.05,VWS V14.01,2013-11-21 13:03:00,
2013-11-21 08:08:00,42.3,39.6,30.25,ESE,120,4.0,9.0,90,0.05,,---,0.05,VWS V14.01,2013-11-21 13:08:00,
2013-11-21 08:13:00,42.4,39.7,30.25,SSW,210,1.0,9.0,90,0.05,,---,0.05,VWS V14.01,2013-11-21 13:13:00,
2013-11-21 08:18:00,42.4,39.7,30.25,ESE,123,2.0,11.0,90,0.06,,---,0.06,VWS V14.01,2013-11-21 13:18:00,
2013-11-21 08:23:00,42.4,39.7,30.25,SE,129,6.0,12.0,90,0.06,,---,0.06,VWS V14.01,2013-11-21 13:23:00,
2013-11-21 08:28:00,42.4,39.7,30.25,WSW,239,1.0,12.0,90,0.06,,---,0.06,VWS V14.01,2013-11-21 13:28:00,
2013-11-21 08:30:00,43.1,40.9,30.25,SE,134,5.0,13.0,92,0.01,,---,0.06,VWS V14.01,2013-11-21 13:30:00,
2013-11-21 08:33:00,42.5,40.1,30.26,SE,146,4.0,12.0,91,0.04,,---,0.06,VWS V14.01,2013-11-21 13:33:00,
2013-11-21 08:38:00,42.5,40.1,30.26,SE,146,2.0,12.0,91,0.04,,---,0.06,VWS V14.01,2013-11-21 13:38:00,
2013-11-21 08:43:00,42.6,40.2,30.26,SW,221,4.0,12.0,91,0.04,,---,0.06,VWS V14.01,2013-11-21 13:43:00,
2013-11-21 08:48:00,42.7,40.3,30.25,SE,129,4.0,12.0,91,0.04,,---,0.06,VWS V14.01,2013-11-21 13:48:00,
2013-11-21 08:53:00,42.7,40.3,30.25,SSE,153,6.0,12.0,91,0.04,,---,0.06,VWS V14.01,2013-11-21 13:53:00,
2013-11-21 08:58:00,42.7,40.3,30.25,South,179,2.0,12.0,91,0.04,,---,0.06,VWS V14.01,2013-11-21 13:58:00,
2013-11-21 09:00:00,43.6,41.4,30.25,ESE,120,4.0,11.0,92,0.01,,---,0.07,VWS V14.01,2013-11-21 14:00:00,
2013-11-21 09:03:00,42.7,40.5,30.25,SE,129,2.0,4.0,92,0.01,,---,0.06,VWS V14.01,2013-11-21 14:03:00,
2013-11-21 09:08:00,42.8,40.6,30.25,SE,144,8.0,10.0,92,0.01,,---,0.06,VWS V14.01,2013-11-21 14:08:00,
2013-11-21 09:13:00,42.8,40.6,30.25,SE,127,6.0,13.0,92,0.01,,---,0.06,VWS V14.01,2013-11-21 14:13:00,
2013-11-21 09:18:00,42.9,40.7,30.25,South,169,2.0,13.0,92,0.01,,---,0.06,VWS V14.01,2013-11-21 14:18:00,
2013-11-21 09:23:00,43.0,40.8,30.25,SSW,200,2.0,13.0,92,0.01,,---,0.06,VWS V14.01,2013-11-21 14:23:00,
2013-11-21 09:28:00,43.1,40.9,30.25,SE,146,6.0,13.0,92,0.01,,---,0.06,VWS V14.01,2013-11-21 14:28:00,
2013-11-21 09:30:00,44.5,42.0,30.26,SE,141,1.0,12.0,91,0.01,,---,0.07,VWS V14.01,2013-11-21 14:30:00,
2013-11-21 09:33:00,43.1,40.9,30.25,ESE,118,3.0,7.0,92,0.00,,---,0.06,VWS V14.01,2013-11-21 14:33:00,
2013-11-21 09:38:00,43.2,41.0,30.26,SSE,148,5.0,9.0,92,0.01,,---,0.07,VWS V14.01,2013-11-21 14:38:00,
2013-11-21 09:43:00,43.3,41.1,30.26,SSW,194,4.0,9.0,92,0.01,,---,0.07,VWS V14.01,2013-11-21 14:43:00,
2013-11-21 09:48:00,43.5,41.3,30.26,SSE,147,6.0,11.0,92,0.01,,---,0.07,VWS V14.01,2013-11-21 14:48:00,
2013-11-21 09:53:00,43.5,41.3,30.26,East,94,4.0,11.0,92,0.01,,---,0.07,VWS V14.01,2013-11-21 14:53:00,
2013-11-21 09:58:00,43.6,41.4,30.25,SSE,158,5.0,11.0,92,0.01,,---,0.07,VWS V14.01,2013-11-21 14:58:00,
2013-11-21 10:00:00,45.4,42.1,30.27,SE,146,7.0,13.0,88,0.01,,---,0.07,VWS V14.01,2013-11-21 15:00:00,
2013-11-21 10:03:00,43.7,41.5,30.25,SSE,154,3.0,8.0,92,0.01,,---,0.07,VWS V14.01,2013-11-21 15:03:00,
2013-11-21 10:08:00,43.8,41.6,30.25,ESE,114,5.0,8.0,92,0.01,,---,0.07,VWS V14.01,2013-11-21 15:08:00,
2013-11-21 10:13:00,43.9,41.7,30.25,SE,137,3.0,9.0,92,0.01,,---,0.07,VWS V14.01,2013-11-21 15:13:00,
2013-11-21 10:18:00,44.1,41.9,30.25,SE,134,6.0,9.0,92,0.01,,---,0.07,VWS V14.01,2013-11-21 15:18:00,
2013-11-21 10:23:00,44.3,42.1,30.26,SE,137,5.0,9.0,92,0.01,,---,0.07,VWS V14.01,2013-11-21 15:23:00,
2013-11-21 10:28:00,44.5,42.0,30.26,ESE,123,4.0,12.0,91,0.01,,---,0.07,VWS V14.01,2013-11-21 15:28:00,
2013-11-21 10:30:00,44.8,41.8,30.26,South,172,5.0,12.0,89,0.03,,---,0.10,VWS V14.01,2013-11-21 15:30:00,
2013-11-21 10:33:00,44.7,42.2,30.26,South,174,3.0,6.0,91,0.01,,---,0.07,VWS V14.01,2013-11-21 15:33:00,
2013-11-21 10:38:00,44.9,42.4,30.26,SSW,197,2.0,7.0,91,0.01,,---,0.07,VWS V14.01,2013-11-21 15:38:00,
2013-11-21 10:43:00,45.2,42.5,30.26,SSW,199,3.0,8.0,90,0.01,,---,0.07,VWS V14.01,2013-11-21 15:43:00,
2013-11-21 10:48:00,45.3,42.5,30.27,SSW,197,4.0,8.0,90,0.01,,---,0.07,VWS V14.01,2013-11-21 15:48:00,
2013-11-21 10:53:00,45.4,42.3,30.27,SSW,193,3.0,12.0,89,0.01,,---,0.07,VWS V14.01,2013-11-21 15:53:00,
2013-11-21 10:58:00,45.4,42.1,30.27,SSW,201,5.0,13.0,88,0.01,,---,0.07,VWS V14.01,2013-11-21 15:58:00,
2013-11-21 11:00:00,44.5,42.0,30.24,SE,134,4.0,11.0,91,0.04,,---,0.11,VWS V14.01,2013-11-21 16:00:00,
2013-11-21 11:03:00,45.5,42.2,30.27,South,187,3.0,7.0,88,0.00,,---,0.07,VWS V14.01,2013-11-21 16:03:00,
2013-11-21 11:08:00,45.6,42.3,30.27,SSW,198,4.0,7.0,88,0.00,,---,0.07,VWS V14.01,2013-11-21 16:08:00,
2013-11-21 11:13:00,45.6,42.3,30.27,SW,231,3.0,12.0,88,0.01,,---,0.08,VWS V14.01,2013-11-21 16:13:00,
2013-11-21 11:18:00,45.4,42.1,30.27,SW,229,4.0,12.0,88,0.02,,---,0.09,VWS V14.01,2013-11-21 16:18:00,
2013-11-21 11:23:00,45.1,41.8,30.26,SSW,203,3.0,12.0,88,0.03,,---,0.10,VWS V14.01,2013-11-21 16:23:00,
2013-11-21 11:28:00,44.9,41.9,30.26,SSW,208,9.0,12.0,89,0.03,,---,0.10,VWS V14.01,2013-11-21 16:28:00,
2013-11-21 11:30:00,44.7,42.2,30.22,SE,141,2.0,8.0,91,0.06,,---,0.13,VWS V14.01,2013-11-21 16:30:00,
2013-11-21 11:33:00,44.7,41.7,30.26,SSW,201,5.0,6.0,89,0.03,,---,0.10,VWS V14.01,2013-11-21 16:33:00,
2013-11-21 11:38:00,44.5,41.8,30.25,ESE,120,5.0,7.0,90,0.03,,---,0.10,VWS V14.01,2013-11-21 16:38:00,
2013-11-21 11:43:00,44.4,41.7,30.25,SSE,158,2.0,11.0,90,0.04,,---,0.11,VWS V14.01,2013-11-21 16:43:00,
2013-11-21 11:48:00,44.4,41.7,30.24,SE,134,6.0,11.0,90,0.04,,---,0.11,VWS V14.01,2013-11-21 16:48:00,
2013-11-21 11:53:00,44.4,41.7,30.24,SSE,156,2.0,11.0,90,0.04,,---,0.11,VWS V14.01,2013-11-21 16:53:00,
2013-11-21 11:58:00,44.5,42.0,30.24,SSE,167,5.0,11.0,91,0.04,,---,0.11,VWS V14.01,2013-11-21 16:58:00,
2013-11-21 12:00:00,45.5,42.7,30.21,SE,128,3.0,7.0,90,0.03,,---,0.13,VWS V14.01,2013-11-21 17:00:00,
2013-11-21 12:03:00,44.6,42.1,30.24,SE,127,3.0,7.0,91,0.05,,---,0.12,VWS V14.01,2013-11-21 17:03:00,
2013-11-21 12:08:00,44.6,42.1,30.23,SE,124,2.0,8.0,91,0.05,,---,0.12,VWS V14.01,2013-11-21 17:08:00,
2013-11-21 12:13:00,44.7,42.2,30.23,SSE,165,1.0,8.0,91,0.06,,---,0.13,VWS V14.01,2013-11-21 17:13:00,
2013-11-21 12:18:00,44.6,42.1,30.22,SE,134,7.0,8.0,91,0.06,,---,0.13,VWS V14.01,2013-11-21 17:18:00,
2013-11-21 12:23:00,44.7,42.2,30.22,SE,129,4.0,8.0,91,0.06,,---,0.13,VWS V14.01,2013-11-21 17:23:00,
2013-11-21 12:28:00,44.7,42.2,30.22,SE,140,2.0,8.0,91,0.06,,---,0.13,VWS V14.01,2013-11-21 17:28:00,
2013-11-21 12:30:00,45.1,42.3,30.21,SE,134,3.0,8.0,90,0.03,,---,0.14,VWS V14.01,2013-11-21 17:30:00,
2013-11-21 12:33:00,44.8,42.3,30.22,SSW,211,2.0,5.0,91,0.03,,---,0.13,VWS V14.01,2013-11-21 17:33:00,
2013-11-21 12:38:00,45.0,42.5,30.22,South,190,0.0,5.0,91,0.03,,---,0.13,VWS V14.01,2013-11-21 17:38:00,
2013-11-21 12:43:00,45.1,42.6,30.22,ESE,120,1.0,5.0,91,0.03,,---,0.13,VWS V14.01,2013-11-21 17:43:00,
2013-11-21 12:48:00,45.2,42.7,30.22,SE,146,3.0,7.0,91,0.03,,---,0.13,VWS V14.01,2013-11-21 17:48:00,
2013-11-21 12:53:00,45.3,42.5,30.22,SE,127,0.0,7.0,90,0.03,,---,0.13,VWS V14.01,2013-11-21 17:53:00,
2013-11-21 12:58:00,45.5,42.7,30.21,SE,129,4.0,7.0,90,0.03,,---,0.13,VWS V14.01,2013-11-21 17:58:00,
2013-11-21 13:00:00,44.9,42.4,30.19,SSW,201,1.0,11.0,91,0.01,,---,0.14,VWS V14.01,2013-11-21 18:00:00,
2013-11-21 13:03:00,45.5,42.5,30.22,SSW,200,2.0,8.0,89,0.02,,---,0.13,VWS V14.01,2013-11-21 18:03:00,
2013-11-21 13:08:00,45.4,42.3,30.21,SE,146,6.0,8.0,89,0.02,,---,0.13,VWS V14.01,2013-11-21 18:08:00,
2013-11-21 13:13:00,45.3,42.3,30.22,SSW,201,2.0,8.0,89,0.02,,---,0.13,VWS V14.01,2013-11-21 18:13:00,
2013-11-21 13:18:00,45.3,42.5,30.22,SW,214,4.0,8.0,90,0.02,,---,0.13,VWS V14.01,2013-11-21 18:18:00,
2013-11-21 13:23:00,45.1,42.3,30.21,SSE,152,2.0,8.0,90,0.03,,---,0.14,VWS V14.01,2013-11-21 18:23:00,
2013-11-21 13:29:00,45.1,42.3,30.21,SSW,194,0.0,8.0,90,0.03,,---,0.14,VWS V14.01,2013-11-21 18:29:00,
2013-11-21 13:30:00,45.0,42.8,30.19,SE,143,1.0,6.0,92,0.03,,---,0.16,VWS V14.01,2013-11-21 18:30:00,
2013-11-21 13:34:00,45.0,42.2,30.20,SW,224,3.0,6.0,90,0.01,,---,0.14,VWS V14.01,2013-11-21 18:34:00,
2013-11-21 13:39:00,45.0,42.2,30.20,SSE,164,2.0,6.0,90,0.01,,---,0.14,VWS V14.01,2013-11-21 18:39:00,
2013-11-21 13:44:00,45.0,42.5,30.20,SSE,164,4.0,6.0,91,0.01,,---,0.14,VWS V14.01,2013-11-21 18:44:00,
2013-11-21 13:49:00,45.0,42.5,30.20,SE,129,3.0,6.0,91,0.01,,---,0.14,VWS V14.01,2013-11-21 18:49:00,
2013-11-21 13:54:00,44.9,42.4,30.20,SSW,208,3.0,11.0,91,0.01,,---,0.14,VWS V14.01,2013-11-21 18:54:00,
2013-11-21 13:59:00,44.9,42.4,30.19,SSE,152,1.0,11.0,91,0.01,,---,0.14,VWS V14.01,2013-11-21 18:59:00,
2013-11-21 14:00:00,44.9,43.0,30.19,SW,225,1.0,7.0,93,0.06,,---,0.20,VWS V14.01,2013-11-21 19:00:00,
2013-11-21 14:04:00,45.0,42.5,30.19,SE,137,2.0,6.0,91,0.01,,---,0.14,VWS V14.01,2013-11-21 19:04:00,
2013-11-21 14:09:00,45.0,42.5,30.20,SE,137,1.0,6.0,91,0.01,,---,0.14,VWS V14.01,2013-11-21 19:09:00,
2013-11-21 14:14:00,44.9,42.4,30.20,SSE,152,1.0,6.0,91,0.01,,---,0.14,VWS V14.01,2013-11-21 19:14:00,
2013-11-21 14:19:00,44.9,42.7,30.19,SE,146,2.0,6.0,92,0.01,,---,0.14,VWS V14.01,2013-11-21 19:19:00,
2013-11-21 14:24:00,44.9,42.7,30.19,SSW,212,1.0,6.0,92,0.02,,---,0.15,VWS V14.01,2013-11-21 19:24:00,
2013-11-21 14:29:00,45.0,42.8,30.19,ESE,109,2.0,6.0,92,0.02,,---,0.15,VWS V14.01,2013-11-21 19:29:00,
2013-11-21 14:30:00,45.0,43.4,30.19,SW,228,0.0,4.0,94,0.09,,---,0.23,VWS V14.01,2013-11-21 19:30:00,
2013-11-21 14:34:00,44.9,42.7,30.19,South,174,0.0,3.0,92,0.02,,---,0.16,VWS V14.01,2013-11-21 19:34:00,
2013-11-21 14:39:00,44.9,42.7,30.19,SE,133,3.0,4.0,92,0.03,,---,0.17,VWS V14.01,2013-11-21 19:39:00,
2013-11-21 14:44:00,44.9,42.7,30.19,SE,133,0.0,5.0,92,0.04,,---,0.18,VWS V14.01,2013-11-21 19:44:00,
2013-11-21 14:49:00,44.9,43.0,30.19,SE,138,2.0,7.0,93,0.05,,---,0.19,VWS V14.01,2013-11-21 19:49:00,
2013-11-21 14:54:00,44.9,43.0,30.19,SSW,210,2.0,7.0,93,0.05,,---,0.19,VWS V14.01,2013-11-21 19:54:00,
2013-11-21 14:59:00,44.9,43.0,30.19,SE,129,3.0,7.0,93,0.06,,---,0.20,VWS V14.01,2013-11-21 19:59:00,
2013-11-21 15:00:00,45.2,43.6,30.20,SE,124,1.0,4.0,94,0.09,,---,0.25,VWS V14.01,2013-11-21 20:00:00,
2013-11-21 15:04:00,44.8,42.9,30.19,SE,136,0.0,4.0,93,0.06,,---,0.20,VWS V14.01,2013-11-21 20:04:00,
2013-11-21 15:09:00,44.9,43.0,30.19,SSW,205,1.0,4.0,93,0.07,,---,0.21,VWS V14.01,2013-11-21 20:09:00,
2013-11-21 15:14:00,44.9,43.3,30.19,South,173,1.0,4.0,94,0.07,,---,0.21,VWS V14.01,2013-11-21 20:14:00,
2013-11-21 15:19:00,45.0,43.4,30.19,SSW,204,0.0,4.0,94,0.08,,---,0.22,VWS V14.01,2013-11-21 20:19:00,
2013-11-21 15:24:00,45.0,43.4,30.19,SSW,212,1.0,4.0,94,0.08,,---,0.22,VWS V14.01,2013-11-21 20:24:00,
2013-11-21 15:29:00,45.0,43.4,30.19,WSW,246,0.0,4.0,94,0.09,,---,0.23,VWS V14.01,2013-11-21 20:29:00,
2013-11-21 15:30:00,45.2,43.6,30.19,SSW,204,0.0,2.0,94,0.07,,---,0.27,VWS V14.01,2013-11-21 20:30:00,
2013-11-21 15:34:00,45.0,43.4,30.20,SE,145,2.0,2.0,94,0.07,,---,0.23,VWS V14.01,2013-11-21 20:34:00,
2013-11-21 15:39:00,45.1,43.5,30.20,SSW,200,0.0,2.0,94,0.07,,---,0.23,VWS V14.01,2013-11-21 20:39:00,
2013-11-21 15:44:00,45.1,43.5,30.20,SSW,198,0.0,2.0,94,0.08,,---,0.24,VWS V14.01,2013-11-21 20:44:00,
2013-11-21 15:49:00,45.1,43.5,30.20,ESE,120,1.0,2.0,94,0.08,,---,0.24,VWS V14.01,2013-11-21 20:49:00,
2013-11-21 15:54:00,45.2,43.6,30.20,SE,134,1.0,4.0,94,0.09,,---,0.25,VWS V14.01,2013-11-21 20:54:00,
2013-11-21 15:59:00,45.3,43.7,30.20,SE,145,1.0,4.0,94,0.09,,---,0.25,VWS V14.01,2013-11-21 20:59:00,
2013-11-21 16:00:00,45.1,43.8,30.20,SE,131,0.0,1.0,95,0.06,,---,0.29,VWS V14.01,2013-11-21 21:00:00,
2013-11-21 16:04:00,45.3,43.7,30.20,SE,131,0.0,2.0,94,0.05,,---,0.25,VWS V14.01,2013-11-21 21:04:00,
2013-11-21 16:09:00,45.2,43.6,30.20,SE,131,0.0,2.0,94,0.05,,---,0.25,VWS V14.01,2013-11-21 21:09:00,
2013-11-21 16:14:00,45.2,43.6,30.20,SW,218,0.0,2.0,94,0.06,,---,0.26,VWS V14.01,2013-11-21 21:14:00,
2013-11-21 16:19:00,45.3,43.7,30.20,SW,229,0.0,2.0,94,0.06,,---,0.26,VWS V14.01,2013-11-21 21:19:00,
2013-11-21 16:24:00,45.2,43.6,30.20,SSW,200,0.0,2.0,94,0.06,,---,0.26,VWS V14.01,2013-11-21 21:24:00,
2013-11-21 16:29:00,45.2,43.6,30.19,SSW,204,0.0,2.0,94,0.07,,---,0.27,VWS V14.01,2013-11-21 21:29:00,
2013-11-21 16:30:00,45.1,43.8,30.20,ESE,120,1.0,3.0,95,0.06,,---,0.31,VWS V14.01,2013-11-21 21:30:00,
2013-11-21 16:34:00,45.2,43.6,30.19,SSW,204,0.0,0.0,94,0.04,,---,0.27,VWS V14.01,2013-11-21 21:34:00,
2013-11-21 16:39:00,45.2,43.6,30.20,SSW,200,0.0,0.0,94,0.04,,---,0.27,VWS V14.01,2013-11-21 21:39:00,
2013-11-21 16:44:00,45.2,43.6,30.20,South,181,0.0,0.0,94,0.05,,---,0.28,VWS V14.01,2013-11-21 21:44:00,
2013-11-21 16:49:00,45.2,43.6,30.20,ESE,118,0.0,1.0,94,0.05,,---,0.28,VWS V14.01,2013-11-21 21:49:00,
2013-11-21 16:54:00,45.2,43.6,30.20,SE,131,0.0,1.0,94,0.05,,---,0.28,VWS V14.01,2013-11-21 21:54:00,
2013-11-21 16:59:00,45.1,43.8,30.20,SE,131,0.0,1.0,95,0.06,,---,0.29,VWS V14.01,2013-11-21 21:59:00,
2013-11-21 17:00:00,45.0,43.7,30.20,SE,143,0.0,3.0,95,0.08,,---,0.35,VWS V14.01,2013-11-21 22:00:00,
2013-11-21 17:04:00,45.1,43.8,30.19,SE,131,0.0,0.0,95,0.04,,---,0.29,VWS V14.01,2013-11-21 22:04:00,
2013-11-21 17:09:00,45.1,43.8,30.20,SE,146,2.0,2.0,95,0.05,,---,0.30,VWS V14.01,2013-11-21 22:09:00,
2013-11-21 17:14:00,45.0,43.7,30.20,SE,135,0.0,2.0,95,0.05,,---,0.30,VWS V14.01,2013-11-21 22:14:00,
2013-11-21 17:19:00,45.0,43.7,30.20,ESE,121,1.0,2.0,95,0.05,,---,0.30,VWS V14.01,2013-11-21 22:19:00,
2013-11-21 17:24:00,45.0,43.7,30.20,SE,142,0.0,3.0,95,0.06,,---,0.31,VWS V14.01,2013-11-21 22:24:00,
2013-11-21 17:29:00,45.0,43.7,30.20,East,101,0.0,3.0,95,0.06,,---,0.31,VWS V14.01,2013-11-21 22:29:00,
2013-11-21 17:30:00,45.2,43.9,30.20,SE,146,1.0,2.0,95,0.11,,---,0.40,VWS V14.01,2013-11-21 22:30:00,
2013-11-21 17:34:00,45.0,43.7,30.20,ESE,122,0.0,2.0,95,0.05,,---,0.32,VWS V14.01,2013-11-21 22:34:00,
2013-11-21 17:39:00,45.0,43.7,30.20,ESE,112,0.0,3.0,95,0.05,,---,0.32,VWS V14.01,2013-11-21 22:39:00,
2013-11-21 17:44:00,45.0,43.7,30.20,ESE,120,0.0,3.0,95,0.06,,---,0.33,VWS V14.01,2013-11-21 22:44:00,
2013-11-21 17:49:00,45.0,43.7,30.20,SE,131,0.0,3.0,95,0.06,,---,0.33,VWS V14.01,2013-11-21 22:49:00,
2013-11-21 17:54:00,45.0,43.7,30.20,SSE,150,0.0,3.0,95,0.07,,---,0.34,VWS V14.01,2013-11-21 22:54:00,
2013-11-21 17:59:00,45.0,43.7,30.20,South,190,0.0,3.0,95,0.08,,---,0.35,VWS V14.01,2013-11-21 22:59:00,
2013-11-21 18:00:00,45.3,44.2,30.20,SE,139,0.0,3.0,96,0.14,,---,0.45,VWS V14.01,2013-11-21 23:00:00,
2013-11-21 18:04:00,45.0,43.7,30.20,SSW,195,0.0,2.0,95,0.07,,---,0.36,VWS V14.01,2013-11-21 23:04:00,
2013-11-21 18:09:00,45.1,43.8,30.20,ESE,115,0.0,2.0,95,0.07,,---,0.36,VWS V14.01,2013-11-21 23:09:00,
2013-11-21 18:15:00,45.1,43.8,30.20,SE,129,1.0,2.0,95,0.08,,---,0.37,VWS V14.01,2013-11-21 23:15:00,
2013-11-21 18:20:00,45.1,43.8,30.20,ESE,120,0.0,2.0,95,0.09,,---,0.38,VWS V14.01,2013-11-21 23:20:00,
2013-11-21 18:25:00,45.1,43.8,30.20,ESE,123,2.0,2.0,95,0.10,,---,0.39,VWS V14.01,2013-11-21 23:25:00,
2013-11-21 18:30:00,45.1,43.8,30.20,SE,146,2.0,2.0,95,0.11,,---,0.40,VWS V14.01,2013-11-21 23:30:00,
2013-11-21 18:35:00,45.2,43.9,30.20,SSE,167,0.0,2.0,95,0.10,,---,0.41,VWS V14.01,2013-11-21 23:35:00,
2013-11-21 18:40:00,45.2,43.9,30.20,SE,145,1.0,2.0,95,0.11,,---,0.42,VWS V14.01,2013-11-21 23:40:00,
2013-11-21 18:45:00,45.2,43.9,30.20,SSE,148,0.0,2.0,95,0.12,,---,0.43,VWS V14.01,2013-11-21 23:45:00,
2013-11-21 18:50:00,45.2,43.9,30.20,SE,134,1.0,2.0,95,0.13,,---,0.44,VWS V14.01,2013-11-21 23:50:00,
2013-11-21 18:55:00,45.3,44.0,30.20,SE,131,1.0,3.0,95,0.13,,---,0.44,VWS V14.01,2013-11-21 23:55:00,
2013-11-21 19:00:00,45.3,44.2,30.20,SE,139,0.0,3.0,96,0.14,,---,0.45,VWS V14.01,2013-11-22 00:00:00,
2013-11-21 19:05:00,45.4,44.3,30.20,ESE,122,1.0,2.0,96,0.10,,---,0.45,VWS V14.01,2013-11-22 00:05:00,
2013-11-21 19:10:00,45.4,44.3,30.20,SE,142,0.0,3.0,96,0.11,,---,0.46,VWS V14.01,2013-11-22 00:10:00,
2013-11-21 19:15:00,45.5,44.4,30.20,SE,146,0.0,3.0,96,0.11,,---,0.46,VWS V14.01,2013-11-22 00:15:00,
2013-11-21 19:20:00,45.5,44.4,30.19,ESE,122,0.0,3.0,96,0.12,,---,0.47,VWS V14.01,2013-11-22 00:20:00,
2013-11-21 19:25:00,45.6,44.5,30.19,ESE,120,0.0,3.0,96,0.13,,---,0.48,VWS V14.01,2013-11-22 00:25:00,
2013-11-21 19:30:00,45.6,44.5,30.19,SE,136,0.0,1.0,96,0.09,,---,0.49,VWS V14.01,2013-11-22 00:30:00,
2013-11-21 19:35:00,45.7,44.6,30.19,SE,139,0.0,2.0,96,0.09,,---,0.49,VWS V14.01,2013-11-22 00:35:00,
2013-11-21 19:40:00,45.7,44.6,30.19,SE,145,1.0,2.0,96,0.10,,---,0.50,VWS V14.01,2013-11-22 00:40:00,
2013-11-21 19:45:00,45.8,44.7,30.19,ESE,119,1.0,2.0,96,0.10,,---,0.50,VWS V14.01,2013-11-22 00:45:00,
2013-11-21 19:50:00,45.8,44.7,30.19,SE,129,0.0,4.0,96,0.11,,---,0.51,VWS V14.01,2013-11-22 00:50:00,
2013-11-21 19:55:00,45.9,44.8,30.19,ESE,119,0.0,4.0,96,0.11,,---,0.51,VWS V14.01,2013-11-22 00:55:00,
2013-11-21 20:00:00,45.9,44.8,30.19,SE,134,0.0,3.0,96,0.06,,---,0.51,VWS V14.01,2013-11-22 01:00:00,
2013-11-21 20:05:00,46.0,44.9,30.18,SE,127,1.0,4.0,96,0.07,,---,0.52,VWS V14.01,2013-11-22 01:05:00,
2013-11-21 20:10:00,46.0,44.9,30.18,SE,127,0.0,5.0,96,0.07,,---,0.52,VWS V14.01,2013-11-22 01:10:00,
2013-11-21 20:15:00,46.0,44.9,30.18,SE,146,1.0,5.0,96,0.07,,---,0.52,VWS V14.01,2013-11-22 01:15:00,
2013-11-21 20:20:00,46.1,45.0,30.18,ESE,112,3.0,5.0,96,0.08,,---,0.53,VWS V14.01,2013-11-22 01:20:00,
2013-11-21 20:25:00,46.1,45.0,30.17,SSE,157,2.0,5.0,96,0.08,,---,0.53,VWS V14.01,2013-11-22 01:25:00,
2013-11-21 20:30:00,46.1,45.0,30.17,ESE,123,6.0,6.0,96,0.04,,---,0.53,VWS V14.01,2013-11-22 01:30:00,
2013-11-21 20:35:00,46.2,45.1,30.17,SE,146,1.0,6.0,96,0.05,,---,0.54,VWS V14.01,2013-11-22 01:35:00,
2013-11-21 20:40:00,46.3,45.2,30.17,ESE,119,0.0,6.0,96,0.05,,---,0.54,VWS V14.01,2013-11-22 01:40:00,
2013-11-21 20:45:00,46.4,45.3,30.17,SSE,149,3.0,6.0,96,0.05,,---,0.54,VWS V14.01,2013-11-22 01:45:00,
2013-11-21 20:50:00,46.5,45.4,30.17,South,191,1.0,7.0,96,0.05,,---,0.54,VWS V14.01,2013-11-22 01:50:00,
2013-11-21 20:56:00,46.6,45.5,30.17,SE,125,2.0,7.0,96,0.06,,---,0.55,VWS V14.01,2013-11-22 01:56:00,
2013-11-21 21:00:00,47.8,46.7,30.17,SSW,195,2.0,7.0,96,0.06,,---,0.59,VWS V14.01,2013-11-22 02:00:00,
2013-11-21 21:01:00,46.7,45.6,30.17,South,179,3.0,3.0,96,0.04,,---,0.55,VWS V14.01,2013-11-22 02:01:00,
2013-11-21 21:06:00,46.8,45.7,30.17,SW,214,1.0,4.0,96,0.05,,---,0.56,VWS V14.01,2013-11-22 02:06:00,
2013-11-21 21:08:00,46.8,45.7,30.18,SE,135,0.0,4.0,96,0.05,,---,0.56,VWS V14.01,2013-11-22 02:08:00,
2013-11-21 21:09:00,46.9,45.8,30.18,ESE,121,2.0,4.0,96,0.05,,---,0.56,VWS V14.01,2013-11-22 02:09:00,
2013-11-21 21:10:00,46.9,45.8,30.18,SE,144,1.0,4.0,96,0.05,,---,0.56,VWS V14.01,2013-11-22 02:10:00,
2013-11-21 21:15:00,47.0,45.9,30.18,SSW,197,0.0,5.0,96,0.06,,---,0.57,VWS V14.01,2013-11-22 02:15:00,
2013-11-21 21:20:00,47.2,46.1,30.18,SE,142,1.0,5.0,96,0.06,,---,0.57,VWS V14.01,2013-11-22 02:20:00,
2013-11-21 21:25:00,47.3,46.2,30.18,SSE,158,2.0,5.0,96,0.06,,---,0.57,VWS V14.01,2013-11-22 02:25:00,
2013-11-21 21:30:00,47.4,46.3,30.17,SSW,212,0.0,5.0,96,0.06,,---,0.57,VWS V14.01,2013-11-22 02:30:00,
2013-11-21 21:35:00,47.5,46.4,30.17,South,191,1.0,5.0,96,0.05,,---,0.58,VWS V14.01,2013-11-22 02:35:00,
2013-11-21 21:40:00,47.6,46.5,30.17,SE,146,1.0,5.0,96,0.05,,---,0.58,VWS V14.01,2013-11-22 02:40:00,
2013-11-21 21:45:00,47.7,46.6,30.17,SE,130,0.0,5.0,96,0.05,,---,0.58,VWS V14.01,2013-11-22 02:45:00,
2013-11-21 21:50:00,47.7,46.6,30.17,South,174,2.0,5.0,96,0.06,,---,0.59,VWS V14.01,2013-11-22 02:50:00,
2013-11-21 21:55:00,47.8,46.7,30.18,SSW,208,3.0,7.0,96,0.06,,---,0.59,VWS V14.01,2013-11-22 02:55:00,
2013-11-21 22:00:00,47.8,46.7,30.18,SSW,194,2.0,2.0,96,0.04,,---,0.59,VWS V14.01,2013-11-22 03:00:00,
2013-11-21 22:05:00,47.8,46.7,30.17,SE,141,4.0,5.0,96,0.05,,---,0.60,VWS V14.01,2013-11-22 03:05:00,
2013-11-21 22:10:00,47.9,46.8,30.17,South,187,1.0,6.0,96,0.05,,---,0.60,VWS V14.01,2013-11-22 03:10:00,
2013-11-21 22:15:00,47.9,46.8,30.17,SSE,168,1.0,6.0,96,0.05,,---,0.60,VWS V14.01,2013-11-22 03:15:00,
2013-11-21 22:20:00,47.9,46.8,30.17,South,179,1.0,6.0,96,0.05,,---,0.60,VWS V14.01,2013-11-22 03:20:00,
2013-11-21 22:25:00,47.9,46.8,30.17,South,190,1.0,6.0,96,0.05,,---,0.60,VWS V14.01,2013-11-22 03:25:00,
2013-11-21 22:30:00,47.9,46.8,30.17,SSW,212,1.0,1.0,96,0.03,,---,0.60,VWS V14.01,2013-11-22 03:30:00,
2013-11-21 22:35:00,47.9,46.8,30.17,South,183,2.0,5.0,96,0.03,,---,0.60,VWS V14.01,2013-11-22 03:35:00,
2013-11-21 22:40:00,47.9,46.8,30.17,SE,134,2.0,5.0,96,0.03,,---,0.60,VWS V14.01,2013-11-22 03:40:00,
2013-11-21 22:45:00,47.9,46.8,30.17,SE,127,5.0,5.0,96,0.04,,---,0.61,VWS V14.01,2013-11-22 03:45:00,
2013-11-21 22:51:00,47.9,46.8,30.17,SSW,194,2.0,5.0,96,0.04,,---,0.61,VWS V14.01,2013-11-22 03:51:00,
2013-11-21 22:56:00,47.9,46.8,30.17,SW,216,2.0,6.0,96,0.04,,---,0.61,VWS V14.01,2013-11-22 03:56:00,
2013-11-21 23:00:00,48.4,47.3,30.16,SSE,154,0.0,4.0,96,0.03,,---,0.00,VWS V14.01,2013-11-22 04:00:00,
2013-11-21 23:01:00,48.0,46.9,30.17,SSW,198,2.0,3.0,96,0.02,,---,0.61,VWS V14.01,2013-11-22 04:01:00,
2013-11-21 23:06:00,48.0,46.9,30.17,South,179,1.0,5.0,96,0.02,,---,0.61,VWS V14.01,2013-11-22 04:06:00,
2013-11-21 23:11:00,48.0,46.9,30.17,South,169,1.0,5.0,96,0.02,,---,0.61,VWS V14.01,2013-11-22 04:11:00,
2013-11-21 23:16:00,48.1,47.0,30.17,South,169,0.0,5.0,96,0.02,,---,0.61,VWS V14.01,2013-11-22 04:16:00,
2013-11-21 23:21:00,48.1,47.0,30.17,SSW,200,0.0,5.0,96,0.02,,---,0.61,VWS V14.01,2013-11-22 04:21:00,
2013-11-21 23:26:00,48.1,47.0,30.16,South,173,2.0,5.0,96,0.02,,---,0.61,VWS V14.01,2013-11-22 04:26:00,
2013-11-21 23:30:00,48.3,47.2,30.16,SSW,204,1.0,5.0,96,0.02,,---,0.00,VWS V14.01,2013-11-22 04:30:00,
2013-11-21 23:31:00,48.2,47.1,30.16,WSW,256,1.0,3.0,96,0.01,,---,0.61,VWS V14.01,2013-11-22 04:31:00,
2013-11-21 23:36:00,48.3,47.2,30.17,SW,224,1.0,3.0,96,0.01,,---,0.61,VWS V14.01,2013-11-22 04:36:00,
2013-11-21 23:41:00,48.3,47.2,30.16,SW,225,2.0,3.0,96,0.02,,---,0.62,VWS V14.01,2013-11-22 04:41:00,
2013-11-21 23:46:00,48.3,47.2,30.16,SSW,207,1.0,3.0,96,0.02,,---,0.62,VWS V14.01,2013-11-22 04:46:00,
2013-11-21 23:51:00,48.4,47.3,30.16,SW,231,0.0,3.0,96,0.02,,---,0.62,VWS V14.01,2013-11-22 04:51:00,
2013-11-21 23:56:00,48.4,47.3,30.16,SW,214,1.0,4.0,96,0.02,,---,0.62,VWS V14.01,2013-11-22 04:56:00,